Energy Center, Louisiana
Current Conditions -  °F | °C
As of 8:53 PM on Friday 21 Nov 2014 (Local Time) from KLFT Reporting Station
Overcast Overcast  
Wind Chill: 62°   Ceiling: 10000
Heat Index: 62°   Visibility: 10mi
Dew Point: 49°   Wind: 5mph
Humidity: 62%   Direction: 110°ESE
Pressure: 30.25"   Gusts: NA
Location:  30.2247°N, 92.0198°W
Report Text: KLFT 220253Z 11004KT 10SM OVC100 17/09 A3025 RMK AO2 SLP242 T01670094 51010
Loading
Personal Weather Stations






























Interactive Weather Map New forecast layout! Learn more

10-Day Weather Forecast

Advertisements
Track Severe Weather on mobile